createdAt,value
2023-04-10T00:08:28.949Z,42.90
2023-04-10T00:18:54.742Z,36.90
2023-04-10T00:29:20.480Z,40.20
2023-04-10T00:39:46.756Z,46.00
2023-04-10T00:50:13.967Z,38.70
2023-04-10T01:00:39.735Z,42.20
2023-04-10T01:11:14.272Z,36.60
2023-04-10T01:21:42.009Z,38.60
2023-04-10T01:32:14.203Z,43.10
2023-04-10T01:42:45.077Z,41.10
2023-04-10T01:53:11.368Z,44.30
2023-04-10T02:03:37.360Z,52.30
2023-04-10T02:14:09.675Z,54.30
2023-04-10T02:24:36.501Z,50.50
2023-04-10T02:35:03.228Z,49.10
2023-04-10T02:45:28.815Z,47.70
2023-04-10T02:55:55.787Z,68.70
2023-04-10T03:06:22.254Z,52.80
2023-04-10T03:16:48.863Z,48.40
2023-04-10T03:27:14.647Z,48.70
2023-04-10T03:37:42.347Z,63.00
2023-04-10T03:48:08.606Z,54.80
2023-04-10T03:58:34.193Z,61.40
2023-04-10T04:09:08.381Z,49.70
2023-04-10T04:19:34.262Z,45.50
2023-04-10T04:30:01.077Z,46.10
2023-04-10T04:40:26.970Z,43.00
2023-04-10T04:50:53.050Z,47.80
2023-04-10T05:01:18.916Z,57.70
2023-04-10T05:11:45.128Z,59.70
2023-04-10T05:22:10.826Z,63.30
2023-04-10T05:32:36.639Z,64.20
2023-04-10T05:43:02.692Z,61.10
2023-04-10T05:53:32.466Z,62.40
2023-04-10T06:03:58.483Z,64.40
2023-04-10T06:14:25.920Z,63.50
2023-04-10T06:24:52.201Z,57.30
2023-04-10T06:35:18.382Z,52.00
2023-04-10T06:45:44.260Z,58.80
2023-04-10T06:56:11.370Z,58.30
2023-04-10T07:06:37.657Z,43.40
2023-04-10T07:17:04.738Z,46.80
2023-04-10T07:27:30.830Z,50.40
2023-04-10T07:37:56.798Z,51.00
2023-04-10T07:48:22.813Z,42.40
2023-04-10T07:58:49.393Z,49.40
2023-04-10T08:09:15.015Z,50.30
2023-04-10T08:19:41.539Z,52.40
2023-04-10T08:30:09.045Z,48.00
2023-04-10T08:40:37.939Z,52.40
2023-04-10T08:51:10.767Z,49.60
2023-04-10T09:01:42.968Z,45.60
2023-04-10T09:12:08.736Z,52.00
2023-04-10T09:22:36.990Z,48.70
2023-04-10T09:33:03.722Z,39.70
2023-04-10T09:43:30.467Z,41.20
2023-04-10T09:53:56.591Z,41.40
2023-04-10T10:04:23.189Z,46.90
2023-04-10T10:14:55.132Z,46.00
2023-04-10T10:25:21.507Z,43.70
2023-04-10T10:35:48.210Z,43.20
2023-04-10T10:46:18.817Z,42.70
2023-04-10T10:56:45.073Z,43.40
2023-04-10T11:07:11.362Z,45.10
2023-04-10T11:17:54.726Z,46.30
2023-04-10T11:28:42.483Z,43.80
2023-04-10T11:39:10.387Z,45.50
2023-04-10T11:49:37.162Z,48.60
2023-04-10T12:00:03.305Z,40.60
2023-04-10T12:10:29.731Z,39.10
2023-04-10T12:20:57.666Z,38.60
2023-04-10T12:31:29.784Z,36.00
2023-04-10T12:41:55.509Z,41.00
2023-04-10T12:52:26.507Z,33.30
2023-04-10T13:02:52.864Z,33.00
2023-04-10T13:13:19.938Z,31.50
2023-04-10T13:23:47.502Z,33.60
2023-04-10T13:34:13.585Z,29.90
2023-04-10T13:44:39.606Z,28.30
2023-04-10T13:55:06.596Z,29.60
2023-04-10T14:05:32.416Z,27.50
2023-04-10T14:15:58.165Z,28.90
2023-04-10T14:26:24.706Z,25.60
2023-04-10T14:36:55.676Z,27.30
2023-04-10T14:47:21.488Z,28.80
2023-04-10T14:57:47.418Z,29.90
2023-04-10T15:08:13.392Z,97.10
2023-04-10T15:18:39.433Z,32.70
2023-04-10T15:29:05.642Z,26.00
2023-04-10T15:39:31.887Z,24.80
2023-04-10T15:49:59.171Z,22.60
2023-04-10T16:00:25.958Z,27.30
2023-04-10T16:10:51.691Z,26.80
2023-04-10T16:21:17.972Z,27.30
2023-04-10T16:31:43.719Z,22.70
2023-04-10T16:42:09.926Z,23.00
2023-04-10T16:52:37.359Z,20.20
2023-04-10T17:03:03.861Z,7.70
2023-04-10T17:13:31.094Z,5.50
2023-04-10T17:23:56.650Z,10.30
2023-04-10T17:34:22.767Z,8.20
2023-04-10T17:44:48.731Z,12.50
2023-04-10T17:55:18.432Z,13.60
2023-04-10T18:05:46.862Z,11.40
2023-04-10T18:16:13.066Z,11.10
2023-04-10T18:26:39.302Z,11.30
2023-04-10T18:37:06.800Z,11.20
2023-04-10T18:47:35.312Z,11.50
2023-04-10T18:58:01.740Z,9.10
2023-04-10T19:08:27.974Z,11.90
2023-04-10T19:18:56.921Z,10.40
2023-04-10T19:29:22.742Z,20.80
2023-04-10T19:39:48.458Z,29.80
2023-04-10T19:50:15.300Z,13.70
2023-04-10T20:00:41.252Z,11.40
2023-04-10T20:11:08.056Z,11.90
2023-04-10T20:21:34.678Z,12.50
2023-04-10T20:32:00.929Z,14.90
2023-04-10T20:42:26.682Z,13.30
2023-04-10T20:52:52.413Z,20.90
2023-04-10T21:03:18.558Z,23.10
2023-04-10T21:13:44.682Z,33.00
2023-04-10T21:24:11.969Z,24.80
2023-04-10T21:34:38.046Z,22.50
2023-04-10T21:45:04.682Z,23.80
2023-04-10T21:55:30.614Z,27.80
2023-04-10T22:05:56.583Z,39.40
2023-04-10T22:16:22.876Z,41.50
2023-04-10T22:26:48.724Z,43.60
2023-04-10T22:37:14.630Z,38.90
2023-04-10T22:47:40.535Z,34.20
2023-04-10T22:58:06.028Z,26.20
2023-04-10T23:08:32.168Z,40.60
2023-04-10T23:18:58.131Z,38.00
2023-04-10T23:29:24.250Z,35.60
2023-04-10T23:39:50.200Z,34.90
2023-04-10T23:50:16.033Z,37.40
